createdAt,value
2022-10-19T00:01:52.357Z,101142.97
2022-10-19T00:04:19.927Z,101145.63
2022-10-19T00:06:47.486Z,101149.22
2022-10-19T00:09:15.074Z,101145.88
2022-10-19T00:11:43.270Z,101145.16
2022-10-19T00:14:10.841Z,101146.19
2022-10-19T00:16:38.425Z,101142.00
2022-10-19T00:19:06.002Z,101147.53
2022-10-19T00:21:33.507Z,101150.50
2022-10-19T00:24:01.430Z,101136.75
2022-10-19T00:26:28.949Z,101139.72
2022-10-19T00:28:56.598Z,101142.50
2022-10-19T00:31:24.220Z,101125.88
2022-10-19T00:33:51.782Z,101122.59
2022-10-19T00:36:19.604Z,101120.19
2022-10-19T00:38:47.183Z,101130.16
2022-10-19T00:41:15.115Z,101126.03
2022-10-19T00:43:42.668Z,101134.97
2022-10-19T00:46:10.377Z,101126.41
2022-10-19T00:48:38.492Z,101130.22
2022-10-19T00:51:06.068Z,101125.94
2022-10-19T00:53:33.685Z,101129.66
2022-10-19T00:56:01.244Z,101128.03
2022-10-19T00:58:28.793Z,101123.88
2022-10-19T01:00:56.988Z,101129.34
2022-10-19T01:03:24.844Z,101132.19
2022-10-19T01:05:52.371Z,101125.41
2022-10-19T01:08:19.928Z,101131.63
2022-10-19T01:10:47.499Z,101130.88
2022-10-19T01:13:15.360Z,101129.00
2022-10-19T01:15:43.061Z,101134.28
2022-10-19T01:18:10.618Z,101133.28
2022-10-19T01:20:38.152Z,101133.13
2022-10-19T01:23:05.718Z,101136.50
2022-10-19T01:25:35.204Z,101132.91
2022-10-19T01:28:03.275Z,101130.19
2022-10-19T01:30:31.535Z,101125.75
2022-10-19T01:32:59.052Z,101130.91
2022-10-19T01:35:26.572Z,101128.31
2022-10-19T01:37:54.686Z,101129.34
2022-10-19T01:40:22.205Z,101118.94
2022-10-19T01:42:49.804Z,101127.94
2022-10-19T01:45:17.405Z,101117.63
2022-10-19T01:47:44.939Z,101116.97
2022-10-19T01:50:13.106Z,101111.72
2022-10-19T01:52:40.639Z,101108.31
2022-10-19T01:55:08.169Z,101106.59
2022-10-19T01:57:35.695Z,101109.25
2022-10-19T02:00:07.569Z,101106.53
2022-10-19T02:02:36.081Z,101107.25
2022-10-19T02:05:03.806Z,101101.84
2022-10-19T02:07:31.361Z,101089.41
2022-10-19T02:09:59.320Z,101092.06
2022-10-19T02:12:26.912Z,101091.13
2022-10-19T02:14:55.198Z,101090.25
2022-10-19T02:17:22.808Z,101093.13
2022-10-19T02:19:50.345Z,101087.97
2022-10-19T02:22:17.898Z,101090.53
2022-10-19T02:24:45.423Z,101089.41
2022-10-19T02:27:13.547Z,101092.81
2022-10-19T02:29:41.122Z,101091.94
2022-10-19T02:32:09.125Z,101100.84
2022-10-19T02:34:36.639Z,101102.78
2022-10-19T02:37:04.223Z,101107.47
2022-10-19T02:39:32.321Z,101098.00
2022-10-19T02:41:59.861Z,101107.03
2022-10-19T02:44:27.433Z,101108.19
2022-10-19T02:46:54.931Z,101107.47
2022-10-19T02:49:22.466Z,101096.16
2022-10-19T02:51:50.400Z,101102.47
2022-10-19T02:54:18.593Z,101095.59
2022-10-19T02:56:46.154Z,101099.16
2022-10-19T02:59:13.748Z,101097.38
2022-10-19T03:01:41.288Z,101099.22
2022-10-19T03:04:09.186Z,101096.56
2022-10-19T03:06:36.797Z,101099.22
2022-10-19T03:09:04.364Z,101102.75
2022-10-19T03:11:31.936Z,101094.81
2022-10-19T03:13:59.525Z,101088.50
2022-10-19T03:16:27.444Z,101088.28
2022-10-19T03:18:55.035Z,101091.50
2022-10-19T03:21:22.651Z,101090.44
2022-10-19T03:23:50.199Z,101090.38
2022-10-19T03:26:17.771Z,101085.06
2022-10-19T03:28:46.007Z,101079.78
2022-10-19T03:31:13.622Z,101083.31
2022-10-19T03:33:41.179Z,101086.19
2022-10-19T03:36:09.269Z,101081.94
2022-10-19T03:38:36.868Z,101090.72
2022-10-19T03:41:04.997Z,101085.41
2022-10-19T03:43:32.589Z,101086.34
2022-10-19T03:46:00.118Z,101083.47
2022-10-19T03:48:28.142Z,101087.00
2022-10-19T03:50:55.762Z,101089.66
2022-10-19T03:53:24.003Z,101086.28
2022-10-19T03:55:51.585Z,101090.88
2022-10-19T03:58:19.608Z,101092.88
2022-10-19T04:00:47.198Z,101090.50
2022-10-19T04:03:14.848Z,101091.50
2022-10-19T04:05:42.796Z,101095.97
2022-10-19T04:08:10.389Z,101091.44
2022-10-19T04:10:37.959Z,101090.50
2022-10-19T04:13:05.577Z,101102.91
2022-10-19T04:15:33.180Z,101089.00
2022-10-19T04:18:01.363Z,101092.09
2022-10-19T04:20:28.973Z,101092.44
2022-10-19T04:22:56.533Z,101085.69
2022-10-19T04:25:24.108Z,101098.38
2022-10-19T04:27:51.734Z,101087.22
2022-10-19T04:30:19.926Z,101095.41
2022-10-19T04:32:47.495Z,101093.91
2022-10-19T04:35:15.322Z,101098.53
2022-10-19T04:37:42.914Z,101094.44
2022-10-19T04:40:14.868Z,101095.59
2022-10-19T04:42:43.341Z,101095.84
2022-10-19T04:45:10.918Z,101096.91
2022-10-19T04:47:38.515Z,101087.34
2022-10-19T04:50:06.120Z,101090.19
2022-10-19T04:52:35.301Z,101089.38
2022-10-19T04:55:02.924Z,101092.09
2022-10-19T04:57:30.587Z,101093.09
2022-10-19T04:59:58.219Z,101092.28
2022-10-19T05:02:26.292Z,101087.91
2022-10-19T05:04:53.951Z,101079.19
2022-10-19T05:07:22.073Z,101081.00
2022-10-19T05:09:49.659Z,101076.69
2022-10-19T05:12:17.275Z,101081.13
2022-10-19T05:14:44.877Z,101082.03
2022-10-19T05:17:12.833Z,101081.25
2022-10-19T05:19:41.032Z,101072.50
2022-10-19T05:22:08.620Z,101073.44
2022-10-19T05:24:36.485Z,101074.31
2022-10-19T05:27:04.110Z,101065.50
2022-10-19T05:29:33.954Z,101064.56
2022-10-19T05:32:02.138Z,101059.25
2022-10-19T05:34:29.812Z,101055.59
2022-10-19T05:36:57.551Z,101057.31
2022-10-19T05:39:25.122Z,101051.09
2022-10-19T05:41:52.747Z,101041.25
2022-10-19T05:44:20.915Z,101057.00
2022-10-19T05:46:48.513Z,101041.03
2022-10-19T05:49:16.149Z,101040.22
2022-10-19T05:51:43.708Z,101045.56
2022-10-19T05:54:11.278Z,101042.97
2022-10-19T05:56:39.229Z,101039.53
2022-10-19T05:59:06.886Z,101044.81
2022-10-19T06:01:34.537Z,101048.41
2022-10-19T06:04:02.242Z,101049.34
2022-10-19T06:06:30.201Z,101039.59
2022-10-19T06:08:59.383Z,101043.16
2022-10-19T06:11:27.074Z,101050.16
2022-10-19T06:13:54.802Z,101060.69
2022-10-19T06:16:23.021Z,101058.81
2022-10-19T06:18:50.694Z,101067.63
2022-10-19T06:21:19.001Z,101071.00
2022-10-19T06:23:46.646Z,101069.16
2022-10-19T06:26:14.295Z,101070.84
2022-10-19T06:28:42.312Z,101072.56
2022-10-19T06:31:10.026Z,101076.88
2022-10-19T06:33:38.365Z,101077.69
2022-10-19T06:36:06.051Z,101076.66
2022-10-19T06:38:34.130Z,101078.38
2022-10-19T06:41:01.933Z,101076.56
2022-10-19T06:43:29.641Z,101078.94
2022-10-19T06:45:57.496Z,101084.81
2022-10-19T06:48:25.609Z,101068.56
2022-10-19T06:50:53.800Z,101074.38
2022-10-19T06:53:21.459Z,101069.63
2022-10-19T06:55:49.098Z,101072.84
2022-10-19T06:58:17.040Z,101078.63
2022-10-19T07:00:44.912Z,101069.53
2022-10-19T07:03:12.882Z,101070.19
2022-10-19T07:05:40.549Z,101069.97
2022-10-19T07:08:08.478Z,101069.91
2022-10-19T07:10:36.732Z,101078.47
2022-10-19T07:13:04.929Z,101080.06
2022-10-19T07:15:32.533Z,101071.13
2022-10-19T07:18:00.386Z,101074.56
2022-10-19T07:20:28.080Z,101069.81
2022-10-19T07:22:56.279Z,101075.59
2022-10-19T07:25:24.087Z,101075.09
2022-10-19T07:27:51.793Z,101074.78
2022-10-19T07:30:20.751Z,101076.28
2022-10-19T07:32:48.492Z,101064.59
2022-10-19T07:35:18.241Z,101071.56
2022-10-19T07:37:45.998Z,101069.44
2022-10-19T07:40:13.827Z,101070.69
2022-10-19T07:42:41.523Z,101065.63
2022-10-19T07:45:09.265Z,101065.03
2022-10-19T07:47:37.762Z,101060.97
2022-10-19T07:50:05.483Z,101061.22
2022-10-19T07:52:36.026Z,101049.28
2022-10-19T07:55:04.883Z,101044.19
2022-10-19T07:57:32.922Z,101050.72
2022-10-19T08:00:01.503Z,101054.41
2022-10-19T08:02:39.416Z,101060.78
2022-10-19T08:05:17.622Z,101052.69
2022-10-19T08:07:47.112Z,101053.28
2022-10-19T08:10:15.319Z,101062.38
2022-10-19T08:12:42.987Z,101059.06
2022-10-19T08:15:10.894Z,101067.16
2022-10-19T08:17:38.928Z,101066.75
2022-10-19T08:20:06.717Z,101063.84
2022-10-19T08:22:35.420Z,101069.75
2022-10-19T08:25:03.431Z,101065.00
2022-10-19T08:27:31.205Z,101057.50
2022-10-19T08:29:59.001Z,101061.63
2022-10-19T08:32:26.717Z,101058.34
2022-10-19T08:34:54.761Z,101055.53
2022-10-19T08:37:39.921Z,101049.94
2022-10-19T08:40:10.128Z,101056.94
2022-10-19T08:42:37.928Z,101045.19
2022-10-19T08:45:06.614Z,101054.09
2022-10-19T08:47:34.481Z,101051.50
2022-10-19T08:50:02.517Z,101045.06
2022-10-19T08:52:34.237Z,101045.91
2022-10-19T08:55:03.058Z,101052.78
2022-10-19T08:57:32.234Z,101049.47
2022-10-19T09:00:00.708Z,101051.69
2022-10-19T09:02:28.529Z,101054.94
2022-10-19T09:04:56.514Z,101052.59
2022-10-19T09:07:24.592Z,101050.25
2022-10-19T09:09:53.254Z,101035.03
2022-10-19T09:12:21.117Z,101045.63
2022-10-19T09:14:48.883Z,101037.63
2022-10-19T09:17:17.226Z,101034.81
2022-10-19T09:19:45.258Z,101039.09
2022-10-19T09:22:15.240Z,101021.03
2022-10-19T09:24:43.124Z,101025.31
2022-10-19T09:27:10.986Z,101017.69
2022-10-19T09:29:39.055Z,101016.28
2022-10-19T09:32:06.726Z,101011.47
2022-10-19T09:34:35.502Z,101013.84
2022-10-19T09:37:03.397Z,101007.31
2022-10-19T09:39:31.196Z,101012.09
2022-10-19T09:41:59.012Z,101006.31
2022-10-19T09:44:27.270Z,101004.03
2022-10-19T09:46:55.638Z,100996.06
2022-10-19T09:49:23.442Z,100987.41
2022-10-19T09:51:51.952Z,100987.13
2022-10-19T09:54:19.735Z,100984.56
2022-10-19T09:56:47.525Z,100988.53
2022-10-19T09:59:15.418Z,100982.84
2022-10-19T10:01:43.821Z,100967.25
2022-10-19T10:04:11.822Z,100958.91
2022-10-19T10:06:40.154Z,100953.16
2022-10-19T10:09:08.105Z,100955.81
2022-10-19T10:11:36.502Z,100957.66
2022-10-19T10:14:07.494Z,100957.88
2022-10-19T10:16:37.844Z,100959.03
2022-10-19T10:19:05.674Z,100948.97
2022-10-19T10:21:34.956Z,100949.31
2022-10-19T10:24:03.436Z,100950.34
2022-10-19T10:26:31.275Z,100955.09
2022-10-19T10:29:01.471Z,100959.00
2022-10-19T10:31:29.597Z,100957.69
2022-10-19T10:34:02.804Z,100960.19
2022-10-19T10:36:39.914Z,100957.72
2022-10-19T10:39:07.708Z,100953.78
2022-10-19T10:41:35.472Z,100949.56
2022-10-19T10:44:05.027Z,100939.81
2022-10-19T10:46:32.920Z,100941.00
2022-10-19T10:49:01.392Z,100948.19
2022-10-19T10:51:29.262Z,100943.84
2022-10-19T10:53:58.013Z,100942.94
2022-10-19T10:56:25.985Z,100940.78
2022-10-19T10:58:53.910Z,100933.41
2022-10-19T11:01:22.498Z,100930.56
2022-10-19T11:03:50.338Z,100928.47
2022-10-19T11:06:19.190Z,100916.06
2022-10-19T11:08:47.167Z,100917.66
2022-10-19T11:11:15.392Z,100904.44
2022-10-19T11:13:43.794Z,100900.34
2022-10-19T11:16:11.708Z,100899.88
2022-10-19T11:18:39.561Z,100887.97
2022-10-19T11:21:07.440Z,100893.34
2022-10-19T11:23:35.270Z,100891.97
2022-10-19T11:26:03.812Z,100885.09
2022-10-19T11:28:31.607Z,100882.16
2022-10-19T11:30:59.549Z,100879.19
2022-10-19T11:33:27.793Z,100877.69
2022-10-19T11:35:55.801Z,100868.41
2022-10-19T11:38:29.596Z,100865.53
2022-10-19T11:41:17.702Z,100856.22
2022-10-19T11:43:45.845Z,100848.59
2022-10-19T11:46:13.815Z,100851.84
2022-10-19T11:48:43.828Z,100853.44
2022-10-19T11:51:20.770Z,100857.59
2022-10-19T11:53:49.403Z,100849.53
2022-10-19T11:56:17.356Z,100845.00
2022-10-19T11:58:46.109Z,100841.88
2022-10-19T12:01:14.320Z,100827.84
2022-10-19T12:03:42.185Z,100830.56
2022-10-19T12:06:11.232Z,100834.53
2022-10-19T12:08:39.086Z,100828.53
2022-10-19T12:11:07.632Z,100823.44
2022-10-19T12:13:35.478Z,100822.00
2022-10-19T12:16:03.356Z,100813.56
2022-10-19T12:18:31.252Z,100815.91
2022-10-19T12:20:58.992Z,100804.78
2022-10-19T12:23:27.611Z,100805.69
2022-10-19T12:25:55.819Z,100805.16
2022-10-19T12:28:23.992Z,100807.75
2022-10-19T12:30:51.913Z,100794.53
2022-10-19T12:33:19.743Z,100798.94
2022-10-19T12:35:50.130Z,100789.75
2022-10-19T12:38:17.970Z,100789.75
2022-10-19T12:40:45.845Z,100780.72
2022-10-19T12:43:13.882Z,100776.75
2022-10-19T12:45:41.753Z,100771.69
2022-10-19T12:48:11.563Z,100772.28
2022-10-19T12:50:39.453Z,100774.13
2022-10-19T12:53:07.415Z,100765.44
2022-10-19T12:55:36.066Z,100765.88
2022-10-19T12:58:04.259Z,100765.19
2022-10-19T13:00:33.357Z,100754.38
2022-10-19T13:03:01.207Z,100758.44
2022-10-19T13:05:28.994Z,100756.41
2022-10-19T13:07:56.826Z,100752.66
2022-10-19T13:10:24.690Z,100751.72
2022-10-19T13:12:53.357Z,100744.06
2022-10-19T13:15:21.137Z,100735.13
2022-10-19T13:17:50.799Z,100723.25
2022-10-19T13:20:18.550Z,100716.34
2022-10-19T13:22:46.460Z,100715.72
2022-10-19T13:25:14.784Z,100724.34
2022-10-19T13:27:42.711Z,100710.84
2022-10-19T13:30:10.508Z,100711.47
2022-10-19T13:32:38.527Z,100709.94
2022-10-19T13:35:06.407Z,100702.06
2022-10-19T13:37:34.949Z,100688.63
2022-10-19T13:40:02.785Z,100687.59
2022-10-19T13:42:30.786Z,100681.63
2022-10-19T13:44:58.696Z,100683.00
2022-10-19T13:47:28.595Z,100682.72
2022-10-19T13:49:57.113Z,100683.25
2022-10-19T13:52:25.037Z,100682.38
2022-10-19T13:54:52.920Z,100677.47
2022-10-19T13:57:20.650Z,100675.09
2022-10-19T13:59:48.541Z,100672.38
2022-10-19T14:02:18.196Z,100669.22
2022-10-19T14:04:45.963Z,100669.66
2022-10-19T14:07:14.000Z,100671.41
2022-10-19T14:09:41.802Z,100665.19
2022-10-19T14:12:10.271Z,100673.97
2022-10-19T14:14:38.829Z,100670.59
2022-10-19T14:17:06.635Z,100666.75
2022-10-19T14:19:34.493Z,100671.16
2022-10-19T14:22:02.491Z,100661.91
2022-10-19T14:24:30.748Z,100660.00
2022-10-19T14:26:59.317Z,100657.88
2022-10-19T14:29:27.213Z,100655.72
2022-10-19T14:31:55.202Z,100650.25
2022-10-19T14:34:22.949Z,100643.78
2022-10-19T14:36:50.832Z,100649.09
2022-10-19T14:39:19.162Z,100646.53
2022-10-19T14:41:47.210Z,100650.97
2022-10-19T14:44:15.123Z,100645.53
2022-10-19T14:46:42.957Z,100650.19
2022-10-19T14:49:11.556Z,100640.94
2022-10-19T14:51:39.815Z,100635.97
2022-10-19T14:54:07.630Z,100633.47
2022-10-19T14:56:35.715Z,100639.56
2022-10-19T14:59:03.551Z,100632.75
2022-10-19T15:01:31.376Z,100624.13
2022-10-19T15:03:59.822Z,100629.00
2022-10-19T15:06:27.980Z,100623.63
2022-10-19T15:08:55.904Z,100621.69
2022-10-19T15:11:23.816Z,100626.47
2022-10-19T15:13:52.216Z,100626.28
2022-10-19T15:16:20.590Z,100618.56
2022-10-19T15:18:49.956Z,100619.34
2022-10-19T15:21:18.199Z,100617.28
2022-10-19T15:23:45.979Z,100612.38
2022-10-19T15:26:17.294Z,100616.19
2022-10-19T15:28:47.642Z,100612.50
2022-10-19T15:31:15.473Z,100613.34
2022-10-19T15:33:43.366Z,100607.91
2022-10-19T15:36:17.208Z,100610.28
2022-10-19T15:38:45.145Z,100608.97
2022-10-19T15:41:13.481Z,100610.16
2022-10-19T15:43:41.227Z,100606.84
2022-10-19T15:46:09.143Z,100604.41
2022-10-19T15:48:36.862Z,100599.38
2022-10-19T15:51:05.150Z,100601.28
2022-10-19T15:53:33.463Z,100599.81
2022-10-19T15:56:01.205Z,100597.19
2022-10-19T15:58:29.113Z,100602.63
2022-10-19T16:00:56.903Z,100600.97
2022-10-19T16:03:24.711Z,100605.41
2022-10-19T16:05:53.082Z,100601.75
2022-10-19T16:08:20.905Z,100597.31
2022-10-19T16:10:48.787Z,100593.66
2022-10-19T16:13:16.974Z,100587.28
2022-10-19T16:15:47.400Z,100588.00
2022-10-19T16:18:18.288Z,100594.13
2022-10-19T16:20:46.052Z,100596.84
2022-10-19T16:23:14.611Z,100599.28
2022-10-19T16:25:42.495Z,100591.03
2022-10-19T16:28:10.318Z,100587.25
2022-10-19T16:30:38.728Z,100591.38
2022-10-19T16:33:06.733Z,100593.72
2022-10-19T16:35:35.037Z,100589.22
2022-10-19T16:38:02.971Z,100581.78
2022-10-19T16:40:32.466Z,100581.28
2022-10-19T16:43:01.815Z,100576.31
2022-10-19T16:45:29.703Z,100579.31
2022-10-19T16:47:57.698Z,100577.16
2022-10-19T16:50:25.477Z,100571.31
2022-10-19T16:52:53.428Z,100574.22
2022-10-19T16:55:21.972Z,100577.38
2022-10-19T16:57:50.182Z,100571.78
2022-10-19T17:00:18.045Z,100569.06
2022-10-19T17:02:46.596Z,100548.53
2022-10-19T17:05:14.599Z,100551.19
2022-10-19T17:07:43.365Z,100550.81
2022-10-19T17:10:11.308Z,100549.69
2022-10-19T17:12:39.284Z,100544.69
2022-10-19T17:15:41.002Z,100542.25
2022-10-19T17:17:56.224Z,100541.50
2022-10-19T17:20:24.115Z,100534.38
2022-10-19T17:22:52.014Z,100537.16
2022-10-19T17:25:19.986Z,100533.59
2022-10-19T17:27:47.812Z,100532.06
2022-10-19T17:30:16.262Z,100526.72
2022-10-19T17:32:44.113Z,100529.50
2022-10-19T17:35:11.931Z,100529.50
2022-10-19T17:37:39.746Z,100526.09
2022-10-19T17:40:07.871Z,100533.22
2022-10-19T17:42:36.929Z,100538.81
2022-10-19T17:45:04.754Z,100538.94
2022-10-19T17:47:32.854Z,100535.53
2022-10-19T17:50:00.853Z,100525.69
2022-10-19T17:52:28.705Z,100526.66
2022-10-19T17:55:13.290Z,100520.59
2022-10-19T17:57:41.389Z,100530.53
2022-10-19T18:00:09.760Z,100537.78
2022-10-19T18:02:37.663Z,100542.38
2022-10-19T18:05:06.675Z,100531.97
2022-10-19T18:07:34.946Z,100536.44
2022-10-19T18:10:03.036Z,100534.63
2022-10-19T18:12:30.927Z,100531.97
2022-10-19T18:14:58.945Z,100534.72
2022-10-19T18:17:28.234Z,100544.53
2022-10-19T18:19:56.088Z,100532.06
2022-10-19T18:22:24.331Z,100526.84
2022-10-19T18:24:52.206Z,100534.00
2022-10-19T18:27:19.945Z,100531.44
2022-10-19T18:29:48.569Z,100523.44
2022-10-19T18:32:16.389Z,100524.41
2022-10-19T18:34:44.212Z,100532.41
2022-10-19T18:37:12.105Z,100527.06
2022-10-19T18:39:39.865Z,100527.19
2022-10-19T18:42:08.247Z,100529.03
2022-10-19T18:44:36.421Z,100527.31
2022-10-19T18:47:04.314Z,100524.88
2022-10-19T18:49:32.180Z,100518.25
2022-10-19T18:52:00.109Z,100513.50
2022-10-19T18:54:28.608Z,100512.00
2022-10-19T18:56:56.536Z,100507.75
2022-10-19T18:59:24.593Z,100501.69
2022-10-19T19:01:52.586Z,100507.97
2022-10-19T19:04:20.345Z,100503.63
2022-10-19T19:06:50.361Z,100503.00
2022-10-19T19:09:19.123Z,100506.72
2022-10-19T19:11:46.951Z,100504.50
2022-10-19T19:14:16.873Z,100502.41
2022-10-19T19:16:44.670Z,100497.44
2022-10-19T19:19:13.213Z,100490.59
2022-10-19T19:21:44.317Z,100489.00
2022-10-19T19:24:12.633Z,100480.63
2022-10-19T19:26:40.447Z,100480.72
2022-10-19T19:29:08.773Z,100477.31
2022-10-19T19:31:37.199Z,100473.78
2022-10-19T19:34:06.454Z,100469.22
2022-10-19T19:36:34.329Z,100475.50
2022-10-19T19:39:02.206Z,100464.97
2022-10-19T19:41:31.403Z,100466.75
2022-10-19T19:43:59.965Z,100463.28
2022-10-19T19:46:27.830Z,100458.03
2022-10-19T19:48:55.698Z,100465.16
2022-10-19T19:51:23.984Z,100452.94
2022-10-19T19:53:51.867Z,100452.19
2022-10-19T19:56:21.197Z,100449.03
2022-10-19T19:58:49.135Z,100442.44
2022-10-19T20:01:16.975Z,100438.38
2022-10-19T20:03:45.423Z,100435.22
2022-10-19T20:06:13.273Z,100435.53
2022-10-19T20:08:41.862Z,100429.69
2022-10-19T20:11:09.734Z,100432.59
2022-10-19T20:13:38.098Z,100429.16
2022-10-19T20:16:07.227Z,100432.28
2022-10-19T20:18:35.082Z,100428.34
2022-10-19T20:21:03.617Z,100424.50
2022-10-19T20:23:31.363Z,100421.66
2022-10-19T20:25:59.316Z,100424.13
2022-10-19T20:28:27.197Z,100420.97
2022-10-19T20:30:55.000Z,100427.38
2022-10-19T20:33:23.364Z,100422.28
2022-10-19T20:35:51.636Z,100434.19
2022-10-19T20:38:19.549Z,100437.38
2022-10-19T20:40:47.450Z,100429.72
2022-10-19T20:43:16.026Z,100427.47
2022-10-19T20:45:44.195Z,100433.00
2022-10-19T20:48:12.107Z,100416.31
2022-10-19T20:50:40.773Z,100418.19
2022-10-19T20:53:09.563Z,100409.38
2022-10-19T20:55:37.344Z,100401.41
2022-10-19T20:58:06.896Z,100399.72
2022-10-19T21:00:34.624Z,100391.50
2022-10-19T21:03:02.335Z,100392.25
2022-10-19T21:05:30.132Z,100393.31
2022-10-19T21:07:58.032Z,100386.75
2022-10-19T21:10:26.648Z,100380.13
2022-10-19T21:12:54.494Z,100376.50
2022-10-19T21:15:22.378Z,100379.81
2022-10-19T21:17:50.108Z,100370.78
2022-10-19T21:20:17.891Z,100373.22
2022-10-19T21:22:46.428Z,100384.59
2022-10-19T21:25:14.338Z,100380.97
2022-10-19T21:27:42.250Z,100381.28
2022-10-19T21:30:10.054Z,100381.41
2022-10-19T21:32:37.847Z,100374.38
2022-10-19T21:35:06.394Z,100378.84
2022-10-19T21:37:34.381Z,100378.31
2022-10-19T21:40:02.268Z,100376.69
2022-10-19T21:42:30.017Z,100377.97
2022-10-19T21:45:06.226Z,100373.94
2022-10-19T21:47:40.263Z,100369.69
2022-10-19T21:50:08.014Z,100357.34
2022-10-19T21:52:35.795Z,100356.28
2022-10-19T21:55:03.547Z,100343.97
2022-10-19T21:57:31.309Z,100347.47
2022-10-19T21:59:59.477Z,100352.69
2022-10-19T22:02:27.649Z,100343.75
2022-10-19T22:04:55.392Z,100345.44
2022-10-19T22:07:23.125Z,100335.56
2022-10-19T22:09:50.845Z,100331.97
2022-10-19T22:12:18.880Z,100321.19
2022-10-19T22:14:46.598Z,100308.03
2022-10-19T22:17:14.269Z,100316.00
2022-10-19T22:19:41.901Z,100309.19
2022-10-19T22:22:09.547Z,100297.91
2022-10-19T22:24:38.750Z,100298.03
2022-10-19T22:27:06.413Z,100296.31
2022-10-19T22:29:34.067Z,100286.47
2022-10-19T22:32:01.761Z,100282.72
2022-10-19T22:34:29.688Z,100276.34
2022-10-19T22:36:57.623Z,100268.91
2022-10-19T22:39:27.795Z,100270.38
2022-10-19T22:41:55.701Z,100259.53
2022-10-19T22:44:23.313Z,100275.06
2022-10-19T22:46:50.943Z,100271.13
2022-10-19T22:49:19.138Z,100273.56
2022-10-19T22:51:46.776Z,100281.63
2022-10-19T22:54:14.459Z,100277.59
2022-10-19T22:56:42.079Z,100274.75
2022-10-19T22:59:09.721Z,100274.41
2022-10-19T23:01:37.988Z,100274.22
2022-10-19T23:04:05.616Z,100263.38
2022-10-19T23:06:33.685Z,100250.59
2022-10-19T23:09:01.410Z,100247.22
2022-10-19T23:11:29.079Z,100250.19
2022-10-19T23:13:57.217Z,100249.63
2022-10-19T23:16:24.967Z,100258.16
2022-10-19T23:18:52.600Z,100258.78
2022-10-19T23:21:20.182Z,100257.59
2022-10-19T23:23:47.859Z,100251.94
2022-10-19T23:26:16.016Z,100252.47
2022-10-19T23:28:44.089Z,100249.03
2022-10-19T23:31:11.718Z,100241.38
2022-10-19T23:33:39.316Z,100246.91
2022-10-19T23:36:06.911Z,100240.84
2022-10-19T23:38:35.091Z,100235.53
2022-10-19T23:41:02.688Z,100224.00
2022-10-19T23:43:30.322Z,100225.38
2022-10-19T23:45:58.055Z,100213.06
2022-10-19T23:48:25.710Z,100206.00
2022-10-19T23:50:55.333Z,100203.97
2022-10-19T23:53:22.991Z,100204.81
2022-10-19T23:55:50.576Z,100199.28
2022-10-19T23:58:18.197Z,100200.63
